sensor_id;sensor_type;location;lat;lon;timestamp;P1;durP1;ratioP1;P2;durP2;ratioP2
9042;SDS011;4556;49.150;8.808;2023-01-25T00:02:12;19.10;;;13.80;;
9042;SDS011;4556;49.150;8.808;2023-01-25T00:04:38;22.37;;;14.37;;
9042;SDS011;4556;49.150;8.808;2023-01-25T00:07:05;20.27;;;13.03;;
9042;SDS011;4556;49.150;8.808;2023-01-25T00:09:32;18.07;;;12.37;;
9042;SDS011;4556;49.150;8.808;2023-01-25T00:12:00;16.70;;;12.23;;
9042;SDS011;4556;49.150;8.808;2023-01-25T00:14:27;18.50;;;12.60;;
9042;SDS011;4556;49.150;8.808;2023-01-25T00:16:54;19.07;;;12.97;;
9042;SDS011;4556;49.150;8.808;2023-01-25T00:19:23;18.77;;;13.37;;
9042;SDS011;4556;49.150;8.808;2023-01-25T00:21:50;16.27;;;13.07;;
9042;SDS011;4556;49.150;8.808;2023-01-25T00:24:17;18.53;;;13.37;;
9042;SDS011;4556;49.150;8.808;2023-01-25T00:26:46;17.13;;;12.03;;
9042;SDS011;4556;49.150;8.808;2023-01-25T00:29:13;19.03;;;12.63;;
9042;SDS011;4556;49.150;8.808;2023-01-25T00:31:43;19.43;;;13.53;;
9042;SDS011;4556;49.150;8.808;2023-01-25T00:37:11;20.90;;;13.10;;
9042;SDS011;4556;49.150;8.808;2023-01-25T00:39:53;21.03;;;12.83;;
9042;SDS011;4556;49.150;8.808;2023-01-25T00:42:20;18.33;;;13.67;;
9042;SDS011;4556;49.150;8.808;2023-01-25T00:44:48;17.17;;;12.50;;
9042;SDS011;4556;49.150;8.808;2023-01-25T00:47:15;18.17;;;12.13;;
9042;SDS011;4556;49.150;8.808;2023-01-25T00:49:44;21.03;;;13.13;;
9042;SDS011;4556;49.150;8.808;2023-01-25T00:52:11;18.67;;;13.13;;
9042;SDS011;4556;49.150;8.808;2023-01-25T00:54:39;18.27;;;12.93;;
9042;SDS011;4556;49.150;8.808;2023-01-25T00:57:06;19.80;;;13.30;;
9042;SDS011;4556;49.150;8.808;2023-01-25T00:59:34;21.13;;;13.43;;
9042;SDS011;4556;49.150;8.808;2023-01-25T01:02:01;17.30;;;11.97;;
9042;SDS011;4556;49.150;8.808;2023-01-25T01:04:29;18.17;;;12.23;;
9042;SDS011;4556;49.150;8.808;2023-01-25T01:06:57;16.27;;;12.03;;
9042;SDS011;4556;49.150;8.808;2023-01-25T01:09:24;16.83;;;11.50;;
9042;SDS011;4556;49.150;8.808;2023-01-25T01:11:51;17.03;;;11.47;;
9042;SDS011;4556;49.150;8.808;2023-01-25T01:14:19;19.37;;;12.47;;
9042;SDS011;4556;49.150;8.808;2023-01-25T01:16:47;17.70;;;12.13;;
9042;SDS011;4556;49.150;8.808;2023-01-25T01:19:14;19.37;;;13.00;;
9042;SDS011;4556;49.150;8.808;2023-01-25T01:21:42;20.33;;;12.13;;
9042;SDS011;4556;49.150;8.808;2023-01-25T01:24:10;20.27;;;13.40;;
9042;SDS011;4556;49.150;8.808;2023-01-25T01:26:37;18.10;;;12.07;;
9042;SDS011;4556;49.150;8.808;2023-01-25T01:29:04;19.33;;;13.20;;
9042;SDS011;4556;49.150;8.808;2023-01-25T01:31:31;18.40;;;12.27;;
9042;SDS011;4556;49.150;8.808;2023-01-25T01:33:59;20.17;;;12.90;;
9042;SDS011;4556;49.150;8.808;2023-01-25T01:36:27;19.67;;;12.97;;
9042;SDS011;4556;49.150;8.808;2023-01-25T01:38:56;18.33;;;13.30;;
9042;SDS011;4556;49.150;8.808;2023-01-25T01:41:24;19.83;;;13.10;;
9042;SDS011;4556;49.150;8.808;2023-01-25T01:43:52;22.13;;;14.13;;
9042;SDS011;4556;49.150;8.808;2023-01-25T01:46:20;21.37;;;14.13;;
9042;SDS011;4556;49.150;8.808;2023-01-25T01:48:56;20.73;;;13.97;;
9042;SDS011;4556;49.150;8.808;2023-01-25T01:51:29;20.57;;;13.83;;
9042;SDS011;4556;49.150;8.808;2023-01-25T01:54:05;21.57;;;14.07;;
9042;SDS011;4556;49.150;8.808;2023-01-25T01:56:38;21.83;;;14.40;;
9042;SDS011;4556;49.150;8.808;2023-01-25T01:59:10;20.23;;;12.47;;
9042;SDS011;4556;49.150;8.808;2023-01-25T02:01:37;22.27;;;14.53;;
9042;SDS011;4556;49.150;8.808;2023-01-25T02:04:05;22.37;;;14.93;;
9042;SDS011;4556;49.150;8.808;2023-01-25T02:06:34;21.37;;;14.30;;
9042;SDS011;4556;49.150;8.808;2023-01-25T02:09:07;21.40;;;15.13;;
9042;SDS011;4556;49.150;8.808;2023-01-25T02:11:34;22.60;;;14.90;;
9042;SDS011;4556;49.150;8.808;2023-01-25T02:14:04;25.40;;;16.00;;
9042;SDS011;4556;49.150;8.808;2023-01-25T02:16:32;24.03;;;14.77;;
9042;SDS011;4556;49.150;8.808;2023-01-25T02:18:59;22.50;;;14.73;;
9042;SDS011;4556;49.150;8.808;2023-01-25T02:21:29;22.53;;;15.27;;
9042;SDS011;4556;49.150;8.808;2023-01-25T02:24:04;23.00;;;15.97;;
9042;SDS011;4556;49.150;8.808;2023-01-25T02:26:37;23.37;;;15.27;;
9042;SDS011;4556;49.150;8.808;2023-01-25T02:29:05;24.50;;;15.63;;
9042;SDS011;4556;49.150;8.808;2023-01-25T02:31:34;24.00;;;15.30;;
9042;SDS011;4556;49.150;8.808;2023-01-25T02:34:01;25.07;;;15.37;;
9042;SDS011;4556;49.150;8.808;2023-01-25T02:36:29;25.23;;;14.60;;
9042;SDS011;4556;49.150;8.808;2023-01-25T02:38:58;26.00;;;16.57;;
9042;SDS011;4556;49.150;8.808;2023-01-25T02:41:32;26.03;;;16.03;;
9042;SDS011;4556;49.150;8.808;2023-01-25T02:44:02;25.03;;;15.77;;
9042;SDS011;4556;49.150;8.808;2023-01-25T02:46:33;24.63;;;15.60;;
9042;SDS011;4556;49.150;8.808;2023-01-25T02:49:02;26.53;;;16.43;;
9042;SDS011;4556;49.150;8.808;2023-01-25T02:51:31;25.40;;;15.80;;
9042;SDS011;4556;49.150;8.808;2023-01-25T02:54:00;20.37;;;12.53;;
9042;SDS011;4556;49.150;8.808;2023-01-25T02:56:27;26.70;;;15.87;;
9042;SDS011;4556;49.150;8.808;2023-01-25T02:58:55;24.87;;;14.83;;
9042;SDS011;4556;49.150;8.808;2023-01-25T03:01:23;23.83;;;15.03;;
9042;SDS011;4556;49.150;8.808;2023-01-25T03:03:50;24.23;;;16.07;;
9042;SDS011;4556;49.150;8.808;2023-01-25T03:06:17;27.93;;;16.47;;
9042;SDS011;4556;49.150;8.808;2023-01-25T03:08:44;25.50;;;16.63;;
9042;SDS011;4556;49.150;8.808;2023-01-25T03:11:11;28.07;;;17.23;;
9042;SDS011;4556;49.150;8.808;2023-01-25T03:13:38;18.40;;;11.13;;
9042;SDS011;4556;49.150;8.808;2023-01-25T03:16:05;26.37;;;16.37;;
9042;SDS011;4556;49.150;8.808;2023-01-25T03:18:35;27.20;;;16.13;;
9042;SDS011;4556;49.150;8.808;2023-01-25T03:21:03;30.20;;;17.03;;
9042;SDS011;4556;49.150;8.808;2023-01-25T03:23:31;26.97;;;17.93;;
9042;SDS011;4556;49.150;8.808;2023-01-25T03:26:06;29.80;;;18.43;;
9042;SDS011;4556;49.150;8.808;2023-01-25T03:28:34;28.07;;;17.13;;
9042;SDS011;4556;49.150;8.808;2023-01-25T03:31:01;27.13;;;17.67;;
9042;SDS011;4556;49.150;8.808;2023-01-25T03:33:29;28.00;;;17.20;;
9042;SDS011;4556;49.150;8.808;2023-01-25T03:35:58;24.47;;;15.30;;
9042;SDS011;4556;49.150;8.808;2023-01-25T03:38:25;23.10;;;14.27;;
9042;SDS011;4556;49.150;8.808;2023-01-25T03:40:52;28.47;;;15.40;;
9042;SDS011;4556;49.150;8.808;2023-01-25T03:43:20;27.47;;;16.77;;
9042;SDS011;4556;49.150;8.808;2023-01-25T03:45:50;26.27;;;16.63;;
9042;SDS011;4556;49.150;8.808;2023-01-25T03:48:17;25.33;;;15.90;;
9042;SDS011;4556;49.150;8.808;2023-01-25T03:50:47;25.97;;;15.47;;
9042;SDS011;4556;49.150;8.808;2023-01-25T03:53:16;24.90;;;15.23;;
9042;SDS011;4556;49.150;8.808;2023-01-25T03:55:52;24.40;;;13.93;;
9042;SDS011;4556;49.150;8.808;2023-01-25T03:58:20;25.83;;;14.40;;
9042;SDS011;4556;49.150;8.808;2023-01-25T04:00:47;24.33;;;14.93;;
9042;SDS011;4556;49.150;8.808;2023-01-25T04:03:14;24.97;;;15.20;;
9042;SDS011;4556;49.150;8.808;2023-01-25T04:05:41;24.37;;;14.90;;
9042;SDS011;4556;49.150;8.808;2023-01-25T04:08:08;21.80;;;13.57;;
9042;SDS011;4556;49.150;8.808;2023-01-25T04:10:37;25.30;;;14.17;;
9042;SDS011;4556;49.150;8.808;2023-01-25T04:13:04;21.63;;;12.97;;
9042;SDS011;4556;49.150;8.808;2023-01-25T04:15:31;15.60;;;8.70;;
9042;SDS011;4556;49.150;8.808;2023-01-25T04:17:58;20.23;;;12.70;;
9042;SDS011;4556;49.150;8.808;2023-01-25T04:20:25;17.90;;;10.30;;
9042;SDS011;4556;49.150;8.808;2023-01-25T04:22:52;19.40;;;11.97;;
9042;SDS011;4556;49.150;8.808;2023-01-25T04:25:19;20.43;;;12.53;;
9042;SDS011;4556;49.150;8.808;2023-01-25T04:27:47;18.20;;;10.63;;
9042;SDS011;4556;49.150;8.808;2023-01-25T04:30:15;21.03;;;13.17;;
9042;SDS011;4556;49.150;8.808;2023-01-25T04:32:42;20.93;;;11.63;;
9042;SDS011;4556;49.150;8.808;2023-01-25T04:35:09;19.63;;;10.30;;
9042;SDS011;4556;49.150;8.808;2023-01-25T04:37:36;19.47;;;12.93;;
9042;SDS011;4556;49.150;8.808;2023-01-25T04:40:03;14.40;;;8.33;;
9042;SDS011;4556;49.150;8.808;2023-01-25T04:42:31;17.00;;;11.07;;
9042;SDS011;4556;49.150;8.808;2023-01-25T04:44:59;22.97;;;12.70;;
9042;SDS011;4556;49.150;8.808;2023-01-25T04:47:26;22.33;;;13.23;;
9042;SDS011;4556;49.150;8.808;2023-01-25T04:49:53;19.30;;;10.67;;
9042;SDS011;4556;49.150;8.808;2023-01-25T04:52:20;20.43;;;11.17;;
9042;SDS011;4556;49.150;8.808;2023-01-25T04:54:47;23.17;;;13.90;;
9042;SDS011;4556;49.150;8.808;2023-01-25T04:57:14;24.47;;;12.90;;
9042;SDS011;4556;49.150;8.808;2023-01-25T04:59:41;21.00;;;11.63;;
9042;SDS011;4556;49.150;8.808;2023-01-25T05:02:09;19.77;;;11.17;;
9042;SDS011;4556;49.150;8.808;2023-01-25T05:04:36;19.47;;;12.70;;
9042;SDS011;4556;49.150;8.808;2023-01-25T05:07:03;22.67;;;11.10;;
9042;SDS011;4556;49.150;8.808;2023-01-25T05:09:30;23.63;;;13.17;;
9042;SDS011;4556;49.150;8.808;2023-01-25T05:11:57;16.80;;;9.80;;
9042;SDS011;4556;49.150;8.808;2023-01-25T05:14:24;20.53;;;10.60;;
9042;SDS011;4556;49.150;8.808;2023-01-25T05:16:51;24.90;;;13.57;;
9042;SDS011;4556;49.150;8.808;2023-01-25T05:19:19;15.20;;;7.30;;
9042;SDS011;4556;49.150;8.808;2023-01-25T05:21:46;21.73;;;13.63;;
9042;SDS011;4556;49.150;8.808;2023-01-25T05:24:26;21.87;;;14.00;;
9042;SDS011;4556;49.150;8.808;2023-01-25T05:26:54;23.27;;;14.03;;
9042;SDS011;4556;49.150;8.808;2023-01-25T05:29:28;26.20;;;13.43;;
9042;SDS011;4556;49.150;8.808;2023-01-25T05:31:56;25.73;;;14.07;;
9042;SDS011;4556;49.150;8.808;2023-01-25T05:34:25;24.03;;;13.50;;
9042;SDS011;4556;49.150;8.808;2023-01-25T05:36:52;21.97;;;13.00;;
9042;SDS011;4556;49.150;8.808;2023-01-25T05:39:19;25.93;;;14.77;;
9042;SDS011;4556;49.150;8.808;2023-01-25T05:41:46;23.80;;;13.90;;
9042;SDS011;4556;49.150;8.808;2023-01-25T05:44:13;22.83;;;12.53;;
9042;SDS011;4556;49.150;8.808;2023-01-25T05:46:40;25.23;;;14.47;;
9042;SDS011;4556;49.150;8.808;2023-01-25T05:49:07;24.53;;;13.90;;
9042;SDS011;4556;49.150;8.808;2023-01-25T05:51:36;25.63;;;13.57;;
9042;SDS011;4556;49.150;8.808;2023-01-25T05:54:03;23.70;;;13.13;;
9042;SDS011;4556;49.150;8.808;2023-01-25T05:56:30;26.93;;;13.33;;
9042;SDS011;4556;49.150;8.808;2023-01-25T05:58:58;23.40;;;13.63;;
9042;SDS011;4556;49.150;8.808;2023-01-25T06:01:26;23.47;;;13.37;;
9042;SDS011;4556;49.150;8.808;2023-01-25T06:03:53;23.57;;;13.87;;
9042;SDS011;4556;49.150;8.808;2023-01-25T06:06:20;25.77;;;14.37;;
9042;SDS011;4556;49.150;8.808;2023-01-25T06:08:50;29.27;;;14.13;;
9042;SDS011;4556;49.150;8.808;2023-01-25T06:11:18;26.03;;;15.10;;
9042;SDS011;4556;49.150;8.808;2023-01-25T06:13:46;24.03;;;13.40;;
9042;SDS011;4556;49.150;8.808;2023-01-25T06:16:13;23.67;;;14.23;;
9042;SDS011;4556;49.150;8.808;2023-01-25T06:18:41;25.30;;;14.27;;
9042;SDS011;4556;49.150;8.808;2023-01-25T06:21:08;25.03;;;14.73;;
9042;SDS011;4556;49.150;8.808;2023-01-25T06:23:36;24.87;;;13.20;;
9042;SDS011;4556;49.150;8.808;2023-01-25T06:26:05;24.70;;;14.73;;
9042;SDS011;4556;49.150;8.808;2023-01-25T06:28:33;26.80;;;15.17;;
9042;SDS011;4556;49.150;8.808;2023-01-25T06:31:02;26.53;;;14.80;;
9042;SDS011;4556;49.150;8.808;2023-01-25T06:33:30;26.20;;;15.07;;
9042;SDS011;4556;49.150;8.808;2023-01-25T06:35:58;25.93;;;15.87;;
9042;SDS011;4556;49.150;8.808;2023-01-25T06:38:26;28.90;;;16.20;;
9042;SDS011;4556;49.150;8.808;2023-01-25T06:40:53;28.17;;;16.00;;
9042;SDS011;4556;49.150;8.808;2023-01-25T06:43:25;31.20;;;17.43;;
9042;SDS011;4556;49.150;8.808;2023-01-25T06:45:56;28.43;;;16.30;;
9042;SDS011;4556;49.150;8.808;2023-01-25T06:48:24;27.83;;;15.73;;
9042;SDS011;4556;49.150;8.808;2023-01-25T06:50:52;28.90;;;15.93;;
9042;SDS011;4556;49.150;8.808;2023-01-25T06:53:23;26.87;;;15.63;;
9042;SDS011;4556;49.150;8.808;2023-01-25T06:55:55;30.80;;;17.33;;
9042;SDS011;4556;49.150;8.808;2023-01-25T06:58:27;34.97;;;19.43;;
9042;SDS011;4556;49.150;8.808;2023-01-25T07:00:58;30.27;;;17.87;;
9042;SDS011;4556;49.150;8.808;2023-01-25T07:03:26;31.20;;;17.40;;
9042;SDS011;4556;49.150;8.808;2023-01-25T07:05:57;27.53;;;16.93;;
9042;SDS011;4556;49.150;8.808;2023-01-25T07:08:25;27.97;;;16.37;;
9042;SDS011;4556;49.150;8.808;2023-01-25T07:10:53;33.20;;;18.00;;
9042;SDS011;4556;49.150;8.808;2023-01-25T07:13:20;29.10;;;17.40;;
9042;SDS011;4556;49.150;8.808;2023-01-25T07:15:56;30.27;;;16.77;;
9042;SDS011;4556;49.150;8.808;2023-01-25T07:18:25;28.60;;;18.87;;
9042;SDS011;4556;49.150;8.808;2023-01-25T07:20:54;28.97;;;15.87;;
9042;SDS011;4556;49.150;8.808;2023-01-25T07:23:21;25.23;;;15.10;;
9042;SDS011;4556;49.150;8.808;2023-01-25T07:25:56;22.70;;;13.70;;
9042;SDS011;4556;49.150;8.808;2023-01-25T07:28:23;20.67;;;13.83;;
9042;SDS011;4556;49.150;8.808;2023-01-25T07:30:50;23.40;;;14.03;;
9042;SDS011;4556;49.150;8.808;2023-01-25T07:33:19;20.53;;;12.90;;
9042;SDS011;4556;49.150;8.808;2023-01-25T07:35:46;19.80;;;13.20;;
9042;SDS011;4556;49.150;8.808;2023-01-25T07:38:15;24.73;;;14.60;;
9042;SDS011;4556;49.150;8.808;2023-01-25T07:40:42;59.27;;;28.93;;
9042;SDS011;4556;49.150;8.808;2023-01-25T07:43:09;22.47;;;14.57;;
9042;SDS011;4556;49.150;8.808;2023-01-25T07:45:38;22.07;;;14.77;;
9042;SDS011;4556;49.150;8.808;2023-01-25T07:48:08;19.27;;;12.60;;
9042;SDS011;4556;49.150;8.808;2023-01-25T07:50:37;21.30;;;12.60;;
9042;SDS011;4556;49.150;8.808;2023-01-25T07:53:05;21.03;;;14.00;;
9042;SDS011;4556;49.150;8.808;2023-01-25T07:55:32;19.63;;;12.87;;
9042;SDS011;4556;49.150;8.808;2023-01-25T07:57:59;19.67;;;13.07;;
9042;SDS011;4556;49.150;8.808;2023-01-25T08:00:26;22.80;;;13.37;;
9042;SDS011;4556;49.150;8.808;2023-01-25T08:02:54;21.53;;;12.83;;
9042;SDS011;4556;49.150;8.808;2023-01-25T08:05:21;21.23;;;13.80;;
9042;SDS011;4556;49.150;8.808;2023-01-25T08:07:50;20.27;;;12.80;;
9042;SDS011;4556;49.150;8.808;2023-01-25T08:10:17;19.90;;;12.43;;
9042;SDS011;4556;49.150;8.808;2023-01-25T08:12:45;19.83;;;13.50;;
9042;SDS011;4556;49.150;8.808;2023-01-25T08:15:12;22.13;;;13.63;;
9042;SDS011;4556;49.150;8.808;2023-01-25T08:17:39;21.77;;;13.83;;
9042;SDS011;4556;49.150;8.808;2023-01-25T08:20:06;22.73;;;13.87;;
9042;SDS011;4556;49.150;8.808;2023-01-25T08:22:34;21.57;;;14.27;;
9042;SDS011;4556;49.150;8.808;2023-01-25T08:25:03;21.20;;;12.53;;
9042;SDS011;4556;49.150;8.808;2023-01-25T08:27:31;20.63;;;13.50;;
9042;SDS011;4556;49.150;8.808;2023-01-25T08:29:58;23.07;;;14.10;;
9042;SDS011;4556;49.150;8.808;2023-01-25T08:32:24;24.50;;;14.50;;
9042;SDS011;4556;49.150;8.808;2023-01-25T08:34:51;23.37;;;13.33;;
9042;SDS011;4556;49.150;8.808;2023-01-25T08:37:18;23.17;;;14.33;;
9042;SDS011;4556;49.150;8.808;2023-01-25T08:39:45;23.20;;;13.80;;
9042;SDS011;4556;49.150;8.808;2023-01-25T08:42:14;20.83;;;13.90;;
9042;SDS011;4556;49.150;8.808;2023-01-25T08:44:41;26.73;;;16.10;;
9042;SDS011;4556;49.150;8.808;2023-01-25T08:47:11;25.47;;;16.20;;
9042;SDS011;4556;49.150;8.808;2023-01-25T08:49:38;22.67;;;13.73;;
9042;SDS011;4556;49.150;8.808;2023-01-25T08:52:05;26.77;;;15.83;;
9042;SDS011;4556;49.150;8.808;2023-01-25T08:54:32;23.33;;;14.03;;
9042;SDS011;4556;49.150;8.808;2023-01-25T08:56:59;23.83;;;14.60;;
9042;SDS011;4556;49.150;8.808;2023-01-25T08:59:28;24.27;;;14.73;;
9042;SDS011;4556;49.150;8.808;2023-01-25T09:01:56;21.10;;;12.50;;
9042;SDS011;4556;49.150;8.808;2023-01-25T09:04:22;26.63;;;13.97;;
9042;SDS011;4556;49.150;8.808;2023-01-25T09:06:52;22.43;;;13.93;;
9042;SDS011;4556;49.150;8.808;2023-01-25T09:09:19;22.27;;;14.00;;
9042;SDS011;4556;49.150;8.808;2023-01-25T09:11:49;21.07;;;12.43;;
9042;SDS011;4556;49.150;8.808;2023-01-25T09:14:16;25.83;;;15.37;;
9042;SDS011;4556;49.150;8.808;2023-01-25T09:16:44;23.83;;;14.60;;
9042;SDS011;4556;49.150;8.808;2023-01-25T09:19:11;24.00;;;14.17;;
9042;SDS011;4556;49.150;8.808;2023-01-25T09:21:38;22.40;;;13.20;;
9042;SDS011;4556;49.150;8.808;2023-01-25T09:24:05;21.37;;;13.13;;
9042;SDS011;4556;49.150;8.808;2023-01-25T09:26:33;23.43;;;13.00;;
9042;SDS011;4556;49.150;8.808;2023-01-25T09:29:02;23.10;;;14.00;;
9042;SDS011;4556;49.150;8.808;2023-01-25T09:31:32;22.30;;;13.90;;
9042;SDS011;4556;49.150;8.808;2023-01-25T09:34:00;22.43;;;13.53;;
9042;SDS011;4556;49.150;8.808;2023-01-25T09:36:28;24.30;;;13.53;;
9042;SDS011;4556;49.150;8.808;2023-01-25T09:38:58;24.50;;;13.93;;
9042;SDS011;4556;49.150;8.808;2023-01-25T09:41:29;19.80;;;13.00;;
9042;SDS011;4556;49.150;8.808;2023-01-25T09:44:11;20.03;;;12.03;;
9042;SDS011;4556;49.150;8.808;2023-01-25T09:46:50;20.70;;;13.53;;
9042;SDS011;4556;49.150;8.808;2023-01-25T09:49:28;21.97;;;12.87;;
9042;SDS011;4556;49.150;8.808;2023-01-25T09:52:15;20.50;;;12.67;;
9042;SDS011;4556;49.150;8.808;2023-01-25T09:54:56;20.43;;;12.43;;
9042;SDS011;4556;49.150;8.808;2023-01-25T09:57:25;18.80;;;12.27;;
9042;SDS011;4556;49.150;8.808;2023-01-25T09:59:56;18.63;;;12.60;;
9042;SDS011;4556;49.150;8.808;2023-01-25T10:02:30;20.83;;;11.83;;
9042;SDS011;4556;49.150;8.808;2023-01-25T10:05:06;20.43;;;12.00;;
9042;SDS011;4556;49.150;8.808;2023-01-25T10:07:43;20.37;;;11.77;;
9042;SDS011;4556;49.150;8.808;2023-01-25T10:10:19;19.67;;;11.93;;
9042;SDS011;4556;49.150;8.808;2023-01-25T10:12:50;19.93;;;12.87;;
9042;SDS011;4556;49.150;8.808;2023-01-25T10:15:17;21.10;;;12.30;;
9042;SDS011;4556;49.150;8.808;2023-01-25T10:17:45;19.03;;;11.73;;
9042;SDS011;4556;49.150;8.808;2023-01-25T10:20:25;18.90;;;11.60;;
9042;SDS011;4556;49.150;8.808;2023-01-25T10:23:04;19.83;;;12.03;;
9042;SDS011;4556;49.150;8.808;2023-01-25T10:25:42;16.93;;;10.37;;
9042;SDS011;4556;49.150;8.808;2023-01-25T10:28:15;18.60;;;11.00;;
9042;SDS011;4556;49.150;8.808;2023-01-25T10:30:54;17.47;;;10.03;;
9042;SDS011;4556;49.150;8.808;2023-01-25T10:33:23;17.97;;;11.53;;
9042;SDS011;4556;49.150;8.808;2023-01-25T10:35:55;19.33;;;10.93;;
9042;SDS011;4556;49.150;8.808;2023-01-25T10:38:28;17.50;;;10.70;;
9042;SDS011;4556;49.150;8.808;2023-01-25T10:40:59;19.50;;;11.17;;
9042;SDS011;4556;49.150;8.808;2023-01-25T10:43:29;19.63;;;12.27;;
9042;SDS011;4556;49.150;8.808;2023-01-25T10:45:56;23.90;;;13.87;;
9042;SDS011;4556;49.150;8.808;2023-01-25T10:48:23;20.77;;;11.50;;
9042;SDS011;4556;49.150;8.808;2023-01-25T10:50:56;17.70;;;11.03;;
9042;SDS011;4556;49.150;8.808;2023-01-25T10:53:28;21.57;;;11.80;;
9042;SDS011;4556;49.150;8.808;2023-01-25T10:56:05;18.00;;;11.03;;
9042;SDS011;4556;49.150;8.808;2023-01-25T10:58:47;17.20;;;10.87;;
9042;SDS011;4556;49.150;8.808;2023-01-25T11:01:25;19.43;;;10.80;;
9042;SDS011;4556;49.150;8.808;2023-01-25T11:03:54;19.57;;;11.03;;
9042;SDS011;4556;49.150;8.808;2023-01-25T11:06:32;19.40;;;10.87;;
9042;SDS011;4556;49.150;8.808;2023-01-25T11:09:00;17.47;;;11.70;;
9042;SDS011;4556;49.150;8.808;2023-01-25T11:11:31;18.67;;;10.77;;
9042;SDS011;4556;49.150;8.808;2023-01-25T11:14:01;21.27;;;11.10;;
9042;SDS011;4556;49.150;8.808;2023-01-25T11:16:40;19.00;;;11.70;;
9042;SDS011;4556;49.150;8.808;2023-01-25T11:21:59;18.37;;;10.80;;
9042;SDS011;4556;49.150;8.808;2023-01-25T11:24:27;19.30;;;11.37;;
9042;SDS011;4556;49.150;8.808;2023-01-25T11:27:12;18.47;;;11.13;;
9042;SDS011;4556;49.150;8.808;2023-01-25T11:29:43;20.07;;;10.40;;
9042;SDS011;4556;49.150;8.808;2023-01-25T11:32:15;19.40;;;12.07;;
9042;SDS011;4556;49.150;8.808;2023-01-25T11:34:46;19.63;;;10.83;;
9042;SDS011;4556;49.150;8.808;2023-01-25T11:37:41;20.57;;;11.80;;
9042;SDS011;4556;49.150;8.808;2023-01-25T11:40:21;19.40;;;11.80;;
9042;SDS011;4556;49.150;8.808;2023-01-25T11:42:58;18.20;;;10.60;;
9042;SDS011;4556;49.150;8.808;2023-01-25T11:48:36;16.97;;;10.47;;
9042;SDS011;4556;49.150;8.808;2023-01-25T11:51:20;18.60;;;11.57;;
9042;SDS011;4556;49.150;8.808;2023-01-25T11:53:55;18.00;;;10.43;;
9042;SDS011;4556;49.150;8.808;2023-01-25T11:56:32;15.90;;;9.47;;
9042;SDS011;4556;49.150;8.808;2023-01-25T11:59:12;20.53;;;9.73;;
9042;SDS011;4556;49.150;8.808;2023-01-25T12:02:02;15.70;;;10.20;;
9042;SDS011;4556;49.150;8.808;2023-01-25T12:04:45;21.00;;;10.23;;
9042;SDS011;4556;49.150;8.808;2023-01-25T12:07:32;17.33;;;9.40;;
9042;SDS011;4556;49.150;8.808;2023-01-25T12:10:18;17.23;;;8.93;;
9042;SDS011;4556;49.150;8.808;2023-01-25T12:12:51;15.17;;;8.37;;
9042;SDS011;4556;49.150;8.808;2023-01-25T12:15:31;16.27;;;9.47;;
9042;SDS011;4556;49.150;8.808;2023-01-25T12:21:08;14.63;;;8.53;;
9042;SDS011;4556;49.150;8.808;2023-01-25T12:23:52;16.80;;;8.77;;
9042;SDS011;4556;49.150;8.808;2023-01-25T12:26:27;14.40;;;8.23;;
9042;SDS011;4556;49.150;8.808;2023-01-25T12:29:02;21.27;;;11.27;;
9042;SDS011;4556;49.150;8.808;2023-01-25T12:31:38;16.80;;;9.63;;
9042;SDS011;4556;49.150;8.808;2023-01-25T12:34:12;16.93;;;9.17;;
9042;SDS011;4556;49.150;8.808;2023-01-25T12:36:43;17.87;;;9.17;;
9042;SDS011;4556;49.150;8.808;2023-01-25T12:39:12;15.37;;;8.80;;
9042;SDS011;4556;49.150;8.808;2023-01-25T12:41:44;16.60;;;8.80;;
9042;SDS011;4556;49.150;8.808;2023-01-25T12:44:17;16.10;;;9.40;;
9042;SDS011;4556;49.150;8.808;2023-01-25T12:46:50;13.40;;;8.40;;
9042;SDS011;4556;49.150;8.808;2023-01-25T12:49:26;14.20;;;8.90;;
9042;SDS011;4556;49.150;8.808;2023-01-25T12:51:58;15.50;;;8.60;;
9042;SDS011;4556;49.150;8.808;2023-01-25T12:54:31;15.43;;;8.43;;
9042;SDS011;4556;49.150;8.808;2023-01-25T12:57:07;14.07;;;8.30;;
9042;SDS011;4556;49.150;8.808;2023-01-25T12:59:43;15.03;;;8.70;;
9042;SDS011;4556;49.150;8.808;2023-01-25T13:02:30;13.93;;;8.17;;
9042;SDS011;4556;49.150;8.808;2023-01-25T13:05:11;14.00;;;8.30;;
9042;SDS011;4556;49.150;8.808;2023-01-25T13:07:47;13.93;;;8.20;;
9042;SDS011;4556;49.150;8.808;2023-01-25T13:10:22;13.80;;;8.70;;
9042;SDS011;4556;49.150;8.808;2023-01-25T13:12:55;14.40;;;8.03;;
9042;SDS011;4556;49.150;8.808;2023-01-25T13:15:34;15.27;;;8.80;;
9042;SDS011;4556;49.150;8.808;2023-01-25T13:21:04;14.63;;;9.00;;
9042;SDS011;4556;49.150;8.808;2023-01-25T13:23:36;17.27;;;9.80;;
9042;SDS011;4556;49.150;8.808;2023-01-25T13:32:14;15.63;;;9.00;;
9042;SDS011;4556;49.150;8.808;2023-01-25T13:35:39;15.60;;;9.13;;
9042;SDS011;4556;49.150;8.808;2023-01-25T13:41:03;13.30;;;8.83;;
9042;SDS011;4556;49.150;8.808;2023-01-25T13:43:39;14.43;;;8.03;;
9042;SDS011;4556;49.150;8.808;2023-01-25T13:46:10;16.10;;;9.07;;
9042;SDS011;4556;49.150;8.808;2023-01-25T13:51:29;12.43;;;7.77;;
9042;SDS011;4556;49.150;8.808;2023-01-25T13:54:01;14.27;;;8.53;;
9042;SDS011;4556;49.150;8.808;2023-01-25T13:56:29;17.53;;;9.53;;
9042;SDS011;4556;49.150;8.808;2023-01-25T13:58:58;15.40;;;8.80;;
9042;SDS011;4556;49.150;8.808;2023-01-25T14:01:25;16.37;;;9.30;;
9042;SDS011;4556;49.150;8.808;2023-01-25T14:03:58;13.77;;;8.50;;
9042;SDS011;4556;49.150;8.808;2023-01-25T14:06:31;15.87;;;8.13;;
9042;SDS011;4556;49.150;8.808;2023-01-25T14:09:03;12.03;;;7.53;;
9042;SDS011;4556;49.150;8.808;2023-01-25T14:11:34;12.47;;;7.87;;
9042;SDS011;4556;49.150;8.808;2023-01-25T14:14:18;13.87;;;8.13;;
9042;SDS011;4556;49.150;8.808;2023-01-25T14:16:59;14.50;;;7.70;;
9042;SDS011;4556;49.150;8.808;2023-01-25T14:19:45;15.07;;;9.13;;
9042;SDS011;4556;49.150;8.808;2023-01-25T14:22:18;15.67;;;8.90;;
9042;SDS011;4556;49.150;8.808;2023-01-25T14:25:00;14.10;;;8.80;;
9042;SDS011;4556;49.150;8.808;2023-01-25T14:27:40;18.37;;;12.33;;
9042;SDS011;4556;49.150;8.808;2023-01-25T14:30:12;14.50;;;9.53;;
9042;SDS011;4556;49.150;8.808;2023-01-25T14:32:43;17.47;;;9.77;;
9042;SDS011;4556;49.150;8.808;2023-01-25T14:38:24;12.67;;;8.50;;
9042;SDS011;4556;49.150;8.808;2023-01-25T14:40:55;13.97;;;8.83;;
9042;SDS011;4556;49.150;8.808;2023-01-25T14:43:25;12.80;;;7.87;;
9042;SDS011;4556;49.150;8.808;2023-01-25T14:45:52;13.60;;;7.90;;
9042;SDS011;4556;49.150;8.808;2023-01-25T14:48:32;15.33;;;8.57;;
9042;SDS011;4556;49.150;8.808;2023-01-25T14:51:05;13.77;;;8.67;;
9042;SDS011;4556;49.150;8.808;2023-01-25T14:53:41;12.77;;;8.40;;
9042;SDS011;4556;49.150;8.808;2023-01-25T14:56:31;15.77;;;8.43;;
9042;SDS011;4556;49.150;8.808;2023-01-25T14:59:05;14.23;;;8.60;;
9042;SDS011;4556;49.150;8.808;2023-01-25T15:01:41;15.60;;;9.47;;
9042;SDS011;4556;49.150;8.808;2023-01-25T15:04:09;13.47;;;8.63;;
9042;SDS011;4556;49.150;8.808;2023-01-25T15:06:46;13.83;;;8.73;;
9042;SDS011;4556;49.150;8.808;2023-01-25T15:09:28;15.63;;;9.00;;
9042;SDS011;4556;49.150;8.808;2023-01-25T15:11:58;13.80;;;8.33;;
9042;SDS011;4556;49.150;8.808;2023-01-25T15:14:26;16.23;;;10.47;;
9042;SDS011;4556;49.150;8.808;2023-01-25T15:16:54;15.70;;;8.63;;
9042;SDS011;4556;49.150;8.808;2023-01-25T15:19:25;16.33;;;10.10;;
9042;SDS011;4556;49.150;8.808;2023-01-25T15:21:56;13.27;;;8.27;;
9042;SDS011;4556;49.150;8.808;2023-01-25T15:24:24;14.37;;;9.27;;
9042;SDS011;4556;49.150;8.808;2023-01-25T15:26:52;15.03;;;9.37;;
9042;SDS011;4556;49.150;8.808;2023-01-25T15:29:23;16.30;;;9.37;;
9042;SDS011;4556;49.150;8.808;2023-01-25T15:31:51;15.73;;;10.33;;
9042;SDS011;4556;49.150;8.808;2023-01-25T15:34:21;21.30;;;12.50;;
9042;SDS011;4556;49.150;8.808;2023-01-25T15:36:50;16.53;;;9.33;;
9042;SDS011;4556;49.150;8.808;2023-01-25T15:39:19;15.73;;;9.30;;
9042;SDS011;4556;49.150;8.808;2023-01-25T15:41:47;14.17;;;8.90;;